createdAt,value
2023-01-13T00:00:42.075Z,10.70
2023-01-13T00:03:46.379Z,10.64
2023-01-13T00:06:49.291Z,10.70
2023-01-13T00:09:52.194Z,10.72
2023-01-13T00:12:54.911Z,10.71
2023-01-13T00:15:58.823Z,10.70
2023-01-13T00:19:04.391Z,10.77
2023-01-13T00:22:07.475Z,10.83
2023-01-13T00:25:13.122Z,10.75
2023-01-13T00:28:15.887Z,10.78
2023-01-13T00:31:20.724Z,10.68
2023-01-13T00:34:25.739Z,10.69
2023-01-13T00:37:28.661Z,10.68
2023-01-13T00:40:31.389Z,10.71
2023-01-13T00:43:35.251Z,10.66
2023-01-13T00:46:38.265Z,10.82
2023-01-13T00:49:42.460Z,10.80
2023-01-13T00:52:45.264Z,10.81
2023-01-13T00:55:48.048Z,10.79
2023-01-13T00:58:51.919Z,10.77
2023-01-13T01:01:54.739Z,10.73
2023-01-13T01:04:59.992Z,10.84
2023-01-13T01:08:03.101Z,10.84
2023-01-13T01:11:07.909Z,10.89
2023-01-13T01:14:13.019Z,10.93
2023-01-13T01:17:15.957Z,10.96
2023-01-13T01:20:20.361Z,10.96
2023-01-13T01:23:23.122Z,10.92
2023-01-13T01:26:27.985Z,10.93
2023-01-13T01:29:30.970Z,11.00
2023-01-13T01:32:35.057Z,10.95
2023-01-13T01:35:41.555Z,11.07
2023-01-13T01:38:45.148Z,10.98
2023-01-13T01:42:01.777Z,11.00
2023-01-13T01:45:15.034Z,10.99
2023-01-13T01:48:18.036Z,10.92
2023-01-13T01:51:22.837Z,10.95
2023-01-13T01:54:31.083Z,10.93
2023-01-13T01:57:41.553Z,10.83
2023-01-13T02:00:44.841Z,10.83
2023-01-13T02:03:55.278Z,10.82
2023-01-13T02:06:59.886Z,10.90
2023-01-13T02:10:05.474Z,10.95
2023-01-13T02:13:11.600Z,10.89
2023-01-13T02:16:24.357Z,10.89
2023-01-13T02:20:01.161Z,10.90
2023-01-13T02:23:51.536Z,10.96
2023-01-13T02:27:28.379Z,10.94
2023-01-13T02:31:00.798Z,10.95
2023-01-13T02:34:11.101Z,10.94
2023-01-13T02:37:20.126Z,10.96
2023-01-13T02:40:26.915Z,10.92
2023-01-13T02:43:54.029Z,10.89
2023-01-13T02:47:03.106Z,10.86
2023-01-13T02:50:11.710Z,10.90
2023-01-13T02:53:20.378Z,10.89
2023-01-13T02:56:25.863Z,10.87
2023-01-13T02:59:30.850Z,10.83
2023-01-13T03:02:35.886Z,10.87
2023-01-13T03:05:40.236Z,10.83
2023-01-13T03:08:47.731Z,10.78
2023-01-13T03:12:00.739Z,10.73
2023-01-13T03:15:11.960Z,10.85
2023-01-13T03:18:25.030Z,10.88
2023-01-13T03:21:34.447Z,10.93
2023-01-13T03:24:41.521Z,10.82
2023-01-13T03:27:49.804Z,10.84
2023-01-13T03:30:58.814Z,10.73
2023-01-13T03:34:08.800Z,10.92
2023-01-13T03:37:15.259Z,10.82
2023-01-13T03:40:23.472Z,10.80
2023-01-13T03:43:47.705Z,10.89
2023-01-13T03:46:58.840Z,10.86
2023-01-13T03:50:06.900Z,10.75
2023-01-13T03:53:14.351Z,10.87
2023-01-13T03:56:22.352Z,10.79
2023-01-13T03:59:31.783Z,10.71
2023-01-13T04:02:43.665Z,10.78
2023-01-13T04:05:56.491Z,10.80
2023-01-13T04:09:08.519Z,10.77
2023-01-13T04:12:15.957Z,10.79
2023-01-13T04:15:19.802Z,10.75
2023-01-13T04:18:25.203Z,10.78
2023-01-13T04:21:31.224Z,10.81
2023-01-13T04:24:34.397Z,10.89
2023-01-13T04:27:37.269Z,10.89
2023-01-13T04:30:40.757Z,10.85
2023-01-13T04:33:43.590Z,10.85
2023-01-13T04:36:47.813Z,10.85
2023-01-13T04:39:50.802Z,10.94
2023-01-13T04:42:53.678Z,10.88
2023-01-13T04:45:56.566Z,10.89
2023-01-13T04:48:59.447Z,10.82
2023-01-13T04:52:03.976Z,10.84
2023-01-13T04:55:08.187Z,10.92
2023-01-13T04:58:12.302Z,10.84
2023-01-13T05:01:15.270Z,10.92
2023-01-13T05:04:18.528Z,10.90
2023-01-13T05:07:22.656Z,10.84
2023-01-13T05:10:25.957Z,10.81
2023-01-13T05:13:46.182Z,10.77
2023-01-13T05:17:01.251Z,10.78
2023-01-13T05:20:05.007Z,10.79
2023-01-13T05:23:38.444Z,10.82
2023-01-13T05:26:41.776Z,10.93
2023-01-13T05:29:44.725Z,10.87
2023-01-13T05:32:47.829Z,10.92
2023-01-13T05:35:50.698Z,10.88
2023-01-13T05:38:54.785Z,10.84
2023-01-13T05:42:15.375Z,10.93
2023-01-13T05:45:18.372Z,10.91
2023-01-13T05:48:22.802Z,10.82
2023-01-13T05:51:26.495Z,10.90
2023-01-13T05:54:30.685Z,10.90
2023-01-13T05:57:33.648Z,10.85
2023-01-13T06:00:37.057Z,10.84
2023-01-13T06:03:39.785Z,10.79
2023-01-13T06:06:43.498Z,10.80
2023-01-13T06:09:47.782Z,10.79
2023-01-13T06:12:50.601Z,10.86
2023-01-13T06:15:57.591Z,10.87
2023-01-13T06:19:00.649Z,10.85
2023-01-13T06:22:13.643Z,10.91
2023-01-13T06:25:25.732Z,10.88
2023-01-13T06:28:28.672Z,10.92
2023-01-13T06:31:31.962Z,10.91
2023-01-13T06:34:36.431Z,10.90
2023-01-13T06:37:39.948Z,10.92
2023-01-13T06:40:44.978Z,10.77
2023-01-13T06:43:48.360Z,10.71
2023-01-13T06:46:52.694Z,10.71
2023-01-13T06:49:55.771Z,10.62
2023-01-13T06:52:58.488Z,10.63
2023-01-13T06:56:02.820Z,10.67
2023-01-13T06:59:05.691Z,10.69
2023-01-13T07:02:08.537Z,10.65
2023-01-13T07:05:11.496Z,10.69
2023-01-13T07:08:14.476Z,10.70
2023-01-13T07:11:18.930Z,10.71
2023-01-13T07:14:39.459Z,10.74
2023-01-13T07:17:42.213Z,10.73
2023-01-13T07:20:45.337Z,10.76
2023-01-13T07:23:49.588Z,10.83
2023-01-13T07:26:54.239Z,10.72
2023-01-13T07:29:56.978Z,10.74
2023-01-13T07:33:02.380Z,10.78
2023-01-13T07:36:06.920Z,10.74
2023-01-13T07:39:09.751Z,10.81
2023-01-13T07:42:31.407Z,10.81
2023-01-13T07:45:34.496Z,10.76
2023-01-13T07:48:37.859Z,10.82
2023-01-13T07:51:41.007Z,10.84
2023-01-13T07:54:43.758Z,10.84
2023-01-13T07:57:49.535Z,10.81
2023-01-13T08:00:53.342Z,10.84
2023-01-13T08:03:58.485Z,10.86
2023-01-13T08:07:01.452Z,10.94
2023-01-13T08:10:04.824Z,10.95
2023-01-13T08:13:21.182Z,11.02
2023-01-13T08:16:24.989Z,11.01
2023-01-13T08:19:27.915Z,11.09
2023-01-13T08:22:31.053Z,11.10
2023-01-13T08:25:33.948Z,11.19
2023-01-13T08:28:41.548Z,11.19
2023-01-13T08:31:44.603Z,11.24
2023-01-13T08:34:47.527Z,11.22
2023-01-13T08:37:51.347Z,11.14
2023-01-13T08:40:54.327Z,11.10
2023-01-13T08:43:58.607Z,11.07
2023-01-13T08:47:02.191Z,11.03
2023-01-13T08:50:06.371Z,10.99
2023-01-13T08:53:09.209Z,10.95
2023-01-13T08:56:13.225Z,10.91
2023-01-13T08:59:18.984Z,10.88
2023-01-13T09:02:23.910Z,10.77
2023-01-13T09:05:26.937Z,10.67
2023-01-13T09:08:29.913Z,10.57
2023-01-13T09:11:53.366Z,10.37
2023-01-13T09:14:58.723Z,10.13
2023-01-13T09:18:02.796Z,9.99
2023-01-13T09:21:06.029Z,9.87
2023-01-13T09:24:09.454Z,9.79
2023-01-13T09:27:13.199Z,9.79
2023-01-13T09:30:17.817Z,9.73
2023-01-13T09:33:38.366Z,9.80
2023-01-13T09:36:41.452Z,9.92
2023-01-13T09:39:44.339Z,9.95
2023-01-13T09:43:10.747Z,10.02
2023-01-13T09:46:33.295Z,10.15
2023-01-13T09:49:39.544Z,10.22
2023-01-13T09:52:43.801Z,10.24
2023-01-13T09:55:46.895Z,10.30
2023-01-13T09:58:50.389Z,10.29
2023-01-13T10:02:01.085Z,10.33
2023-01-13T10:05:13.379Z,10.32
2023-01-13T10:08:23.832Z,10.35
2023-01-13T10:11:49.318Z,10.35
2023-01-13T10:14:55.553Z,10.32
2023-01-13T10:18:08.428Z,10.37
2023-01-13T10:21:32.105Z,10.43
2023-01-13T10:24:52.395Z,10.45
2023-01-13T10:27:57.447Z,10.37
2023-01-13T10:31:01.595Z,10.40
2023-01-13T10:34:05.948Z,10.42
2023-01-13T10:37:22.122Z,10.37
2023-01-13T10:40:25.696Z,10.32
2023-01-13T10:43:30.141Z,10.44
2023-01-13T10:46:35.144Z,10.54
2023-01-13T10:49:39.723Z,10.39
2023-01-13T10:52:58.142Z,10.23
2023-01-13T10:56:02.634Z,10.14
2023-01-13T10:59:23.389Z,9.95
2023-01-13T11:02:29.636Z,9.78
2023-01-13T11:05:34.102Z,9.69
2023-01-13T11:08:45.346Z,9.74
2023-01-13T11:11:50.799Z,9.59
2023-01-13T11:14:54.271Z,9.56
2023-01-13T11:18:02.309Z,9.63
2023-01-13T11:21:13.319Z,9.54
2023-01-13T11:24:22.888Z,9.62
2023-01-13T11:27:39.676Z,9.53
2023-01-13T11:30:50.935Z,9.47
2023-01-13T11:33:58.159Z,9.50
2023-01-13T11:37:08.418Z,9.41
2023-01-13T11:40:17.586Z,9.45
2023-01-13T11:43:29.843Z,9.40
2023-01-13T11:46:33.119Z,9.60
2023-01-13T11:49:37.661Z,9.77
2023-01-13T11:53:03.603Z,9.90
2023-01-13T11:56:20.069Z,10.32
2023-01-13T11:59:54.631Z,11.94
2023-01-13T12:03:18.086Z,14.09
2023-01-13T12:06:32.019Z,15.57
2023-01-13T12:09:48.781Z,16.02
2023-01-13T12:13:00.105Z,16.70
2023-01-13T12:16:16.901Z,17.17
2023-01-13T12:19:27.924Z,16.91
2023-01-13T12:22:35.983Z,16.74
2023-01-13T12:25:45.284Z,16.51
2023-01-13T12:28:53.004Z,16.51
2023-01-13T12:31:59.186Z,17.10
2023-01-13T12:35:20.984Z,16.66
2023-01-13T12:38:34.584Z,15.58
2023-01-13T12:41:59.597Z,14.12
2023-01-13T12:45:25.363Z,13.59
2023-01-13T12:49:05.168Z,15.14
2023-01-13T12:52:15.453Z,17.48
2023-01-13T12:55:21.479Z,18.59
2023-01-13T12:58:29.844Z,19.33
2023-01-13T13:01:37.002Z,20.11
2023-01-13T13:04:44.944Z,21.10
2023-01-13T13:07:50.574Z,21.26
2023-01-13T13:11:02.960Z,21.56
2023-01-13T13:14:08.640Z,21.93
2023-01-13T13:17:45.912Z,21.95
2023-01-13T13:21:04.707Z,21.91
2023-01-13T13:24:12.119Z,21.16
2023-01-13T13:27:19.243Z,19.60
2023-01-13T13:30:29.146Z,19.85
2023-01-13T13:33:51.001Z,20.64
2023-01-13T13:37:16.304Z,21.16
2023-01-13T13:40:36.993Z,21.74
2023-01-13T13:43:59.977Z,22.05
2023-01-13T13:47:06.484Z,20.69
2023-01-13T13:50:13.835Z,19.09
2023-01-13T13:53:19.583Z,17.79
2023-01-13T13:56:26.965Z,15.92
2023-01-13T13:59:30.992Z,14.48
2023-01-13T14:02:38.734Z,13.38
2023-01-13T14:05:55.101Z,12.34
2023-01-13T14:08:57.831Z,11.76
2023-01-13T14:12:02.661Z,11.28
2023-01-13T14:15:06.572Z,10.83
2023-01-13T14:18:16.765Z,10.24
2023-01-13T14:21:21.569Z,9.87
2023-01-13T14:24:25.539Z,9.56
2023-01-13T14:27:29.961Z,9.75
2023-01-13T14:30:34.413Z,10.26
2023-01-13T14:33:42.681Z,10.29
2023-01-13T14:36:47.904Z,10.11
2023-01-13T14:39:50.830Z,9.90
2023-01-13T14:43:04.856Z,9.72
2023-01-13T14:46:07.941Z,9.64
2023-01-13T14:49:24.865Z,9.54
2023-01-13T14:52:29.597Z,9.42
2023-01-13T14:55:34.403Z,9.34
2023-01-13T14:58:37.672Z,9.23
2023-01-13T15:01:40.836Z,9.04
2023-01-13T15:04:45.260Z,9.05
2023-01-13T15:07:51.395Z,8.96
2023-01-13T15:11:00.005Z,8.81
2023-01-13T15:14:03.883Z,8.79
2023-01-13T15:17:19.473Z,8.73
2023-01-13T15:20:25.775Z,8.66
2023-01-13T15:23:28.950Z,8.67
2023-01-13T15:26:34.926Z,8.76
2023-01-13T15:29:38.035Z,8.71
2023-01-13T15:32:40.762Z,8.67
2023-01-13T15:35:47.609Z,8.59
2023-01-13T15:38:50.980Z,8.51
2023-01-13T15:42:07.684Z,8.52
2023-01-13T15:45:30.994Z,8.40
2023-01-13T15:48:34.188Z,8.37
2023-01-13T15:51:40.937Z,8.26
2023-01-13T15:54:44.018Z,8.24
2023-01-13T15:57:50.748Z,8.11
2023-01-13T16:00:53.957Z,8.12
2023-01-13T16:03:56.913Z,8.14
2023-01-13T16:07:01.389Z,8.14
2023-01-13T16:10:04.976Z,8.11
2023-01-13T16:13:07.978Z,8.07
2023-01-13T16:16:19.910Z,8.06
2023-01-13T16:19:23.505Z,8.00
2023-01-13T16:22:27.666Z,8.10
2023-01-13T16:25:30.675Z,8.10
2023-01-13T16:28:35.756Z,7.99
2023-01-13T16:31:38.657Z,7.91
2023-01-13T16:34:41.853Z,7.83
2023-01-13T16:37:47.329Z,7.75
2023-01-13T16:40:52.269Z,7.73
2023-01-13T16:43:55.361Z,7.66
2023-01-13T16:46:58.099Z,7.59
2023-01-13T16:50:01.021Z,7.48
2023-01-13T16:53:05.846Z,7.44
2023-01-13T16:56:20.865Z,7.40
2023-01-13T16:59:23.852Z,7.34
2023-01-13T17:02:26.838Z,7.16
2023-01-13T17:05:30.350Z,7.12
2023-01-13T17:08:34.543Z,7.02
2023-01-13T17:11:37.423Z,7.08
2023-01-13T17:14:41.171Z,7.06
2023-01-13T17:17:47.126Z,7.20
2023-01-13T17:20:49.845Z,7.18
2023-01-13T17:23:54.513Z,7.16
2023-01-13T17:26:57.940Z,7.25
2023-01-13T17:30:02.929Z,7.27
2023-01-13T17:33:07.183Z,7.35
2023-01-13T17:36:10.032Z,7.50
2023-01-13T17:39:18.372Z,7.56
2023-01-13T17:42:21.205Z,7.68
2023-01-13T17:45:24.259Z,7.74
2023-01-13T17:48:27.555Z,7.80
2023-01-13T17:51:30.531Z,7.90
2023-01-13T17:54:34.973Z,7.98
2023-01-13T17:57:37.730Z,8.03
2023-01-13T18:00:40.649Z,8.11
2023-01-13T18:03:44.033Z,8.15
2023-01-13T18:06:48.528Z,8.26
2023-01-13T18:09:52.901Z,8.32
2023-01-13T18:12:56.206Z,8.27
2023-01-13T18:16:04.167Z,8.28
2023-01-13T18:19:24.649Z,8.30
2023-01-13T18:22:45.133Z,8.21
2023-01-13T18:26:06.716Z,8.15
2023-01-13T18:29:09.696Z,8.11
2023-01-13T18:32:12.973Z,8.03
2023-01-13T18:35:15.824Z,7.98
2023-01-13T18:38:19.960Z,8.04
2023-01-13T18:41:41.532Z,8.03
2023-01-13T18:44:44.331Z,8.08
2023-01-13T18:47:47.164Z,8.09
2023-01-13T18:50:50.694Z,8.10
2023-01-13T18:53:53.941Z,8.16
2023-01-13T18:56:58.231Z,8.24
2023-01-13T19:00:00.972Z,8.26
2023-01-13T19:06:16.149Z,8.34
2023-01-13T19:09:20.175Z,8.38
2023-01-13T19:12:27.561Z,8.35
2023-01-13T19:15:30.856Z,8.32
2023-01-13T19:18:37.698Z,8.29
2023-01-13T19:21:40.565Z,8.22
2023-01-13T19:24:43.322Z,8.23
2023-01-13T19:27:47.505Z,8.24
2023-01-13T19:30:52.244Z,8.29
2023-01-13T19:33:55.239Z,8.20
2023-01-13T19:36:58.096Z,8.16
2023-01-13T19:40:01.379Z,8.13
2023-01-13T19:43:23.540Z,8.02
2023-01-13T19:46:27.890Z,8.00
2023-01-13T19:49:30.690Z,7.91
2023-01-13T19:52:33.605Z,7.87
2023-01-13T19:55:36.320Z,7.82
2023-01-13T19:58:42.030Z,7.82
2023-01-13T20:01:44.975Z,7.75
2023-01-13T20:04:48.952Z,7.73
2023-01-13T20:07:52.394Z,7.70
2023-01-13T20:11:15.112Z,7.66
2023-01-13T20:14:19.729Z,7.60
2023-01-13T20:17:23.392Z,7.54
2023-01-13T20:20:27.369Z,7.43
2023-01-13T20:23:30.285Z,7.40
2023-01-13T20:26:33.129Z,7.35
2023-01-13T20:29:39.686Z,7.34
2023-01-13T20:32:42.749Z,7.40
2023-01-13T20:35:45.890Z,7.39
2023-01-13T20:38:48.894Z,7.40
2023-01-13T20:42:09.135Z,7.40
2023-01-13T20:45:18.512Z,7.45
2023-01-13T20:48:21.588Z,7.53
2023-01-13T20:51:24.458Z,7.55
2023-01-13T20:54:27.660Z,7.56
2023-01-13T20:57:30.443Z,7.50
2023-01-13T21:00:34.722Z,7.38
2023-01-13T21:03:38.053Z,7.23
2023-01-13T21:06:41.589Z,7.09
2023-01-13T21:09:44.917Z,6.95
2023-01-13T21:13:07.565Z,6.86
2023-01-13T21:16:12.112Z,6.88
2023-01-13T21:19:15.056Z,7.02
2023-01-13T21:22:17.866Z,7.11
2023-01-13T21:25:20.989Z,7.16
2023-01-13T21:28:23.825Z,7.23
2023-01-13T21:31:29.914Z,7.28
2023-01-13T21:34:35.418Z,7.20
2023-01-13T21:37:38.435Z,7.12
2023-01-13T21:40:41.234Z,7.22
2023-01-13T21:44:01.560Z,7.29
2023-01-13T21:47:23.721Z,7.30
2023-01-13T21:50:29.200Z,7.35
2023-01-13T21:53:32.025Z,7.55
2023-01-13T21:56:34.775Z,7.58
2023-01-13T21:59:37.792Z,7.65
2023-01-13T22:02:42.110Z,7.63
2023-01-13T22:05:46.355Z,7.51
2023-01-13T22:08:52.670Z,7.50
2023-01-13T22:11:55.462Z,7.50
2023-01-13T22:15:01.242Z,7.41
2023-01-13T22:18:05.692Z,7.30
2023-01-13T22:21:08.649Z,7.21
2023-01-13T22:24:11.825Z,7.17
2023-01-13T22:27:18.276Z,7.12
2023-01-13T22:30:22.192Z,7.06
2023-01-13T22:33:26.539Z,6.97
2023-01-13T22:36:29.238Z,6.96
2023-01-13T22:39:32.337Z,6.93
2023-01-13T22:42:38.268Z,6.93
2023-01-13T22:45:43.981Z,6.93
2023-01-13T22:48:48.731Z,6.97
2023-01-13T22:51:51.967Z,6.88
2023-01-13T22:54:54.919Z,6.79
2023-01-13T22:57:57.695Z,6.70
2023-01-13T23:01:09.177Z,6.59
2023-01-13T23:04:17.153Z,6.51
2023-01-13T23:07:20.007Z,6.57
2023-01-13T23:10:23.263Z,6.61
2023-01-13T23:13:27.418Z,6.52
2023-01-13T23:16:36.652Z,6.44
2023-01-13T23:19:43.843Z,6.37
2023-01-13T23:22:47.137Z,6.35
2023-01-13T23:25:50.951Z,6.30
2023-01-13T23:28:54.373Z,6.30
2023-01-13T23:32:02.400Z,6.23
2023-01-13T23:35:08.552Z,6.20
2023-01-13T23:38:11.536Z,6.10
2023-01-13T23:41:16.888Z,5.98
2023-01-13T23:44:19.764Z,5.91
2023-01-13T23:47:22.612Z,5.87
2023-01-13T23:50:26.854Z,5.88
2023-01-13T23:53:35.265Z,5.78
2023-01-13T23:56:39.684Z,5.74
2023-01-13T23:59:42.799Z,5.84
